Terminal Aerodrome Forecast
Issued by NWS El Paso, TX

Current Version | Previous Version | Text Only | Print | Product List | Glossary On
Versions: 1 2 3 4 5 6 7 8 9 10 11 12 13
000
FTUS44 KEPZ 252300
TAFELP
TAF
KELP 252321Z 2600/2624 VRB05KT P6SM FEW090
     FM260300 21006KT P6SM SKC
     FM261800 VRB05KT P6SM FEW090=

USA.gov is the U.S. government's official web portal to all federal, state and local government web resources and services.